Gales Creek, OR (97117)

8:40 PM PST on January 24, 2015 (GMT -0800)
Near Hwy 6 - 8 Junction | Change Station
CLOSE
Current Station
Personal Weather Station
Location: Gales Creek, OR
Elevation: 338 ft
Nearby Weather Stations

Elev 338 ft 45.61 °N, 123.23 °W | Updated 15 seconds ago

Mostly Cloudy
Mostly Cloudy
46.1 °F
Feels Like 43 °F
N
6.0
Wind Variable Wind from SSE
Gusts 53.0 mph

Today
High -- | Low -- °F
--% Chance of Precip.
Yesterday
High -- | Low -- °F
Precip. -- in
7:42 AM 5:07 PM
Waxing Crescent, 28% visible
Pressure 30.25 in
Visibility 1.0 miles
Clouds Overcast 200 ft
Windchill 43 °F
Dew Point 46 °F
Humidity 99%
Rainfall 0.00 in
Snow Depth Not available.
UV 0 out of 12
Pollen 2.30 out of 12
Air Quality Not available.
Flu Activity Not available.
SPECI KHIO 250425Z 08003KT 1SM R13/4000VP6000FT BR OVC002 08/08 A3025 RMK AO2 T00830083

More Conditions Fewer Conditions

Pressure 30.25 in
Visibility 1.0 miles
Clouds Overcast 200 ft
Windchill 43 °F
Dew Point 46 °F
Humidity 99%
Rainfall 0.00 in
Snow Depth Not available.
UV 0 out of 12
Pollen 2.30 out of 12
Air Quality Not available.
Flu Activity Not available.
SPECI KHIO 250425Z 08003KT 1SM R13/4000VP6000FT BR OVC002 08/08 A3025 RMK AO2 T00830083

More Conditions Fewer Conditions

10-Day Weather Forecast

Almanac

Astronomy

Jan. 24, 2015 Rise Set
Actual Time
Civil Twilight
Nautical Twilight
Astronomical Twilight
Moon
Length of Visible Light
Length of Day
Tomorrow will be .
, % of the Moon is Illuminated

Today's Extremes

State Highs State Lows

Community

WunderPhotos

Upload Photos

1,789,839 photos uploaded!

WunderBlogs® & News

Nearby

Air Quality

  Air Quality AQ Index Pollutant
Not available.

Snow Depth

Station Depth Elevation

Earthquake Activity

City Distance Mag. Time & Date
Minimum magnitude displayed is 2.5.

Coastal Water Temperatures

Place Temperature

Nearby Weather Stations